Time;durP1;ratioP1;P1;durP2;ratioP2;P2;SDS_P1;SDS_P2;PMS_P1;PMS_P2;Temp;Humidity;BMP_temperature;BMP_pressure;BME280_temperature;BME280_humidity;BME280_pressure;Samples;Min_cycle;Max_cycle;Signal;HPM_P1;HPM_P2
2021/10/13 00:02:15;;;;;;;15.10;13.48;;;7.50;99.90;;;;;;4978777;28;20420;-80
2021/10/13 00:04:41;;;;;;;15.55;11.15;;;7.50;99.90;;;;;;4990783;28;20235;-81
2021/10/13 00:07:08;;;;;;;16.45;11.95;;;7.50;99.90;;;;;;4977784;28;20235;-80
2021/10/13 00:09:35;;;;;;;16.10;11.70;;;7.40;99.90;;;;;;4996614;28;20705;-80
2021/10/13 00:12:03;;;;;;;16.10;13.32;;;7.40;99.90;;;;;;4997998;28;20215;-80
2021/10/13 00:14:30;;;;;;;11.18;9.98;;;7.30;99.90;;;;;;4979783;28;20710;-81
2021/10/13 00:17:03;;;;;;;13.60;11.07;;;7.30;99.90;;;;;;4978201;28;20208;-80
2021/10/13 00:19:30;;;;;;;14.02;11.32;;;7.30;99.90;;;;;;4995588;28;20254;-81
2021/10/13 00:21:56;;;;;;;13.57;11.95;;;7.30;99.90;;;;;;4997946;28;20203;-80
2021/10/13 00:24:24;;;;;;;17.90;12.05;;;7.20;99.90;;;;;;4979916;28;20228;-80
2021/10/13 00:26:50;;;;;;;12.57;10.18;;;7.30;99.90;;;;;;4978106;28;20227;-80
2021/10/13 00:29:18;;;;;;;13.75;10.73;;;7.30;99.90;;;;;;4993417;28;20212;-80
2021/10/13 00:31:45;;;;;;;11.73;10.48;;;7.20;99.90;;;;;;4979052;28;20205;-80
2021/10/13 00:34:12;;;;;;;16.30;12.63;;;7.20;99.90;;;;;;4991631;28;20238;-80
2021/10/13 00:36:38;;;;;;;13.23;11.88;;;7.20;99.90;;;;;;4997869;28;20207;-80
2021/10/13 00:39:05;;;;;;;15.40;12.10;;;7.20;99.90;;;;;;4985105;28;20204;-80
2021/10/13 00:41:32;;;;;;;13.52;11.75;;;7.10;99.90;;;;;;4981139;28;20211;-80
2021/10/13 00:43:59;;;;;;;14.18;12.05;;;7.10;99.90;;;;;;4997296;28;20614;-80
2021/10/13 00:46:27;;;;;;;14.15;12.65;;;7.10;99.90;;;;;;4995376;28;20228;-80
2021/10/13 00:48:53;;;;;;;21.13;13.23;;;7.10;99.90;;;;;;4978197;28;20215;-80
2021/10/13 00:51:20;;;;;;;15.38;11.02;;;7.10;99.90;;;;;;4978412;28;20208;-80
2021/10/13 00:53:47;;;;;;;15.80;12.43;;;7.20;99.90;;;;;;4994392;28;20626;-80
2021/10/13 00:56:14;;;;;;;14.35;12.27;;;7.10;99.90;;;;;;4978138;28;20216;-80
2021/10/13 00:58:41;;;;;;;17.13;12.23;;;7.20;99.90;;;;;;4996563;28;20200;-80
2021/10/13 01:01:23;;;;;;;14.93;11.10;;;7.20;99.90;;;;;;4997896;28;20214;-80
2021/10/13 01:04:18;;;;;;;17.38;13.40;;;7.20;99.90;;;;;;4997574;28;20234;-80
2021/10/13 01:06:53;;;;;;;14.65;10.80;;;7.10;99.90;;;;;;4985868;28;20224;-80
2021/10/13 01:09:24;;;;;;;14.68;11.50;;;7.10;99.90;;;;;;4978514;28;20212;-80
2021/10/13 01:12:00;;;;;;;14.20;11.82;;;7.20;99.90;;;;;;4990434;28;20207;-80
2021/10/13 01:14:40;;;;;;;16.35;12.05;;;7.30;99.90;;;;;;4997534;28;20227;-80
2021/10/13 01:17:16;;;;;;;12.65;11.20;;;7.20;99.90;;;;;;4983914;28;20203;-80
2021/10/13 01:19:58;;;;;;;12.38;10.70;;;7.20;99.90;;;;;;4997527;28;20211;-79
2021/10/13 01:22:52;;;;;;;12.45;11.07;;;7.10;99.90;;;;;;4981948;28;20204;-80
2021/10/13 01:25:33;;;;;;;18.60;11.82;;;7.20;99.90;;;;;;4977513;28;20219;-80
2021/10/13 01:28:04;;;;;;;12.50;11.25;;;7.20;99.90;;;;;;4977792;28;20243;-80
2021/10/13 01:30:34;;;;;;;15.02;10.45;;;7.30;99.90;;;;;;4986369;28;20208;-80
2021/10/13 01:33:07;;;;;;;14.75;11.60;;;7.30;99.90;;;;;;4997089;28;20227;-80
2021/10/13 01:35:35;;;;;;;14.43;12.30;;;7.20;99.90;;;;;;4992232;28;20215;-80
2021/10/13 01:38:07;;;;;;;14.90;12.00;;;7.10;99.90;;;;;;4981886;28;20212;-80
2021/10/13 01:40:36;;;;;;;18.35;10.63;;;7.20;99.90;;;;;;4989805;28;20203;-80
2021/10/13 01:43:06;;;;;;;16.83;11.63;;;7.20;99.90;;;;;;4986392;28;20239;-80
2021/10/13 01:45:34;;;;;;;10.85;9.80;;;7.20;99.90;;;;;;4988785;28;20215;-80
2021/10/13 01:48:04;;;;;;;13.07;11.68;;;7.20;99.90;;;;;;5001981;28;20235;-80
2021/10/13 01:50:32;;;;;;;16.58;10.60;;;7.20;99.90;;;;;;4992882;28;20216;-80
2021/10/13 01:53:00;;;;;;;13.48;10.30;;;7.20;99.90;;;;;;4982144;28;20228;-80
2021/10/13 01:55:28;;;;;;;14.10;10.13;;;7.20;99.90;;;;;;4996389;28;20212;-80
2021/10/13 01:57:58;;;;;;;12.30;10.85;;;7.30;99.90;;;;;;5000952;28;20214;-80
2021/10/13 02:00:27;;;;;;;17.90;10.27;;;7.30;99.90;;;;;;4986277;28;20580;-80
2021/10/13 02:02:55;;;;;;;11.35;9.27;;;7.20;99.90;;;;;;4981835;28;20229;-80
2021/10/13 02:05:23;;;;;;;9.85;8.05;;;7.20;99.90;;;;;;4994191;28;20208;-80
2021/10/13 02:07:50;;;;;;;10.18;9.07;;;7.10;99.90;;;;;;4980848;28;20239;-80
2021/10/13 02:10:21;;;;;;;12.55;8.65;;;7.20;99.90;;;;;;4995619;28;20214;-79
2021/10/13 02:12:48;;;;;;;13.25;9.45;;;7.20;99.90;;;;;;5002133;28;20208;-80
2021/10/13 02:15:17;;;;;;;13.05;9.48;;;7.30;99.90;;;;;;4988389;28;20200;-81
2021/10/13 02:17:48;;;;;;;12.27;10.77;;;7.40;99.90;;;;;;4986657;28;20203;-80
2021/10/13 02:20:16;;;;;;;11.13;9.60;;;7.40;99.90;;;;;;5000874;28;20207;-80
2021/10/13 02:22:47;;;;;;;14.88;8.98;;;7.30;99.90;;;;;;4995660;28;20201;-79
2021/10/13 02:25:14;;;;;;;11.40;7.95;;;7.30;99.90;;;;;;4981616;28;20215;-79
2021/10/13 02:27:45;;;;;;;11.38;8.48;;;7.40;99.90;;;;;;4986289;28;20694;-79
2021/10/13 02:30:13;;;;;;;14.18;9.52;;;7.40;99.90;;;;;;4990726;28;20219;-78
2021/10/13 02:32:40;;;;;;;14.23;10.38;;;7.30;99.90;;;;;;4989038;28;20226;-78
2021/10/13 02:35:10;;;;;;;11.73;8.70;;;7.30;99.90;;;;;;4997902;28;20200;-79
2021/10/13 02:37:37;;;;;;;12.43;10.60;;;7.30;99.90;;;;;;4996230;28;20288;-79
2021/10/13 02:40:04;;;;;;;11.75;9.05;;;7.40;99.90;;;;;;4985873;28;20208;-78
2021/10/13 02:42:32;;;;;;;11.10;9.38;;;7.40;99.90;;;;;;4984447;28;20211;-79
2021/10/13 02:44:59;;;;;;;13.23;10.15;;;7.40;99.90;;;;;;4986037;28;20208;-78
2021/10/13 02:47:32;;;;;;;10.88;9.30;;;7.50;99.90;;;;;;4983719;28;20232;-78
2021/10/13 02:50:07;;;;;;;10.95;9.27;;;7.60;99.90;;;;;;4996272;28;20216;-79
2021/10/13 02:52:42;;;;;;;11.98;10.52;;;7.50;99.90;;;;;;5003693;28;20273;-78
2021/10/13 02:55:14;;;;;;;11.10;9.18;;;7.50;99.90;;;;;;4991167;28;20215;-79
2021/10/13 02:57:45;;;;;;;12.80;11.13;;;7.50;99.90;;;;;;4984171;28;20212;-79
2021/10/13 03:00:14;;;;;;;12.25;10.57;;;7.30;99.90;;;;;;4996447;28;20211;-80
2021/10/13 03:02:47;;;;;;;13.30;9.93;;;7.30;99.90;;;;;;4998262;28;20203;-79
2021/10/13 03:05:17;;;;;;;11.95;10.05;;;7.30;99.90;;;;;;4996532;28;20204;-79
2021/10/13 03:07:48;;;;;;;14.15;10.93;;;7.20;99.90;;;;;;4998429;28;20226;-79
2021/10/13 03:10:15;;;;;;;11.20;9.00;;;7.30;99.90;;;;;;4984467;28;20388;-79
2021/10/13 03:12:52;;;;;;;11.77;9.45;;;7.30;99.90;;;;;;4986743;28;20200;-79
2021/10/13 03:15:19;;;;;;;12.88;10.02;;;7.30;99.90;;;;;;4999385;28;20682;-79
2021/10/13 03:17:48;;;;;;;14.18;10.43;;;7.50;99.90;;;;;;4982150;28;20232;-79
2021/10/13 03:20:17;;;;;;;11.27;9.95;;;7.50;99.90;;;;;;4980814;28;20679;-80
2021/10/13 03:22:46;;;;;;;12.57;10.18;;;7.50;99.90;;;;;;4997003;28;20208;-79
2021/10/13 03:25:13;;;;;;;13.23;10.75;;;7.50;99.90;;;;;;4999413;28;20211;-79
2021/10/13 03:27:39;;;;;;;10.93;9.75;;;7.40;99.90;;;;;;4983893;28;20730;-79
2021/10/13 03:30:08;;;;;;;11.23;9.95;;;7.30;99.90;;;;;;4997940;28;20204;-79
2021/10/13 03:32:35;;;;;;;11.30;9.07;;;7.30;99.90;;;;;;4984032;28;20266;-79
2021/10/13 03:35:02;;;;;;;11.18;9.40;;;7.30;99.90;;;;;;4992414;28;20200;-79
2021/10/13 03:37:28;;;;;;;13.20;9.88;;;7.20;99.90;;;;;;4999177;28;20690;-79
2021/10/13 03:39:56;;;;;;;13.50;10.38;;;7.30;99.90;;;;;;4987638;28;20219;-79
2021/10/13 03:42:23;;;;;;;12.40;8.50;;;7.20;99.90;;;;;;4999291;28;20214;-80
2021/10/13 03:44:50;;;;;;;11.93;10.73;;;7.20;99.90;;;;;;4988683;28;20224;-79
2021/10/13 03:47:17;;;;;;;16.40;11.05;;;7.20;99.90;;;;;;4979402;28;20220;-80
2021/10/13 03:49:44;;;;;;;14.05;11.30;;;7.10;99.90;;;;;;4980864;28;20212;-79
2021/10/13 03:52:10;;;;;;;11.23;10.00;;;7.10;99.90;;;;;;4979287;28;20204;-79
2021/10/13 03:54:37;;;;;;;12.88;10.13;;;7.20;99.90;;;;;;4999507;28;20232;-79
2021/10/13 03:57:05;;;;;;;11.02;9.88;;;7.30;99.90;;;;;;4998311;28;20699;-79
2021/10/13 03:59:32;;;;;;;12.27;10.60;;;7.50;99.90;;;;;;4979357;28;20211;-79
2021/10/13 04:01:59;;;;;;;13.02;9.82;;;7.50;99.90;;;;;;4979477;28;20556;-79
2021/10/13 04:04:26;;;;;;;12.13;9.73;;;7.40;99.90;;;;;;4992286;28;20715;-78
2021/10/13 04:06:52;;;;;;;11.35;9.18;;;7.40;99.90;;;;;;4979043;28;20209;-79
2021/10/13 04:09:19;;;;;;;17.02;10.10;;;7.40;99.90;;;;;;4995363;28;20224;-79
2021/10/13 04:11:46;;;;;;;10.77;9.65;;;7.30;99.90;;;;;;4998783;28;20204;-79
2021/10/13 04:14:14;;;;;;;12.75;9.85;;;7.50;99.90;;;;;;4984142;28;20239;-79
2021/10/13 04:16:40;;;;;;;18.10;10.73;;;7.50;99.90;;;;;;4983533;28;20208;-79
2021/10/13 04:19:07;;;;;;;11.32;9.27;;;7.60;99.90;;;;;;4998595;28;20218;-79
2021/10/13 04:21:34;;;;;;;12.93;10.35;;;7.70;99.90;;;;;;4995141;28;20196;-79
2021/10/13 04:24:01;;;;;;;10.20;9.20;;;7.70;99.90;;;;;;4979014;28;20873;-79
2021/10/13 04:26:27;;;;;;;14.68;10.77;;;7.60;99.90;;;;;;4981582;28;20220;-79
2021/10/13 04:28:55;;;;;;;16.48;9.93;;;7.60;99.90;;;;;;4989652;28;20291;-78
2021/10/13 04:31:23;;;;;;;13.32;9.70;;;7.60;99.90;;;;;;4979577;28;20679;-79
2021/10/13 04:33:50;;;;;;;14.00;10.45;;;7.60;99.90;;;;;;4998974;28;20235;-79
2021/10/13 04:36:17;;;;;;;13.43;10.90;;;7.60;99.90;;;;;;5000744;28;20203;-78
2021/10/13 04:38:43;;;;;;;12.68;10.48;;;7.80;99.90;;;;;;5000747;28;20207;-79
2021/10/13 04:41:10;;;;;;;13.70;9.95;;;7.90;99.90;;;;;;4987952;28;20220;-79
2021/10/13 04:43:37;;;;;;;11.18;8.57;;;7.70;99.90;;;;;;4980654;28;20458;-78
2021/10/13 04:46:04;;;;;;;16.75;8.77;;;7.50;99.90;;;;;;4991527;28;20207;-78
2021/10/13 04:48:32;;;;;;;17.23;9.70;;;7.50;99.90;;;;;;4999372;28;20224;-78
2021/10/13 04:50:59;;;;;;;12.57;8.98;;;7.60;99.90;;;;;;4987648;28;20208;-79
2021/10/13 04:53:26;;;;;;;12.75;9.32;;;7.50;99.90;;;;;;4994469;28;20231;-79
2021/10/13 04:55:53;;;;;;;12.18;9.32;;;7.40;99.90;;;;;;4989649;28;20200;-79
2021/10/13 04:58:19;;;;;;;10.80;9.00;;;7.40;99.90;;;;;;4978395;28;20706;-79
2021/10/13 05:00:46;;;;;;;16.30;10.63;;;7.30;99.90;;;;;;4982156;28;20215;-79
2021/10/13 05:03:13;;;;;;;12.52;8.57;;;7.20;99.90;;;;;;4996764;23;20231;-84
2021/10/13 05:09:00;;;;;;;9.55;7.53;;;7.20;99.90;;;;;;4974037;28;20695;-84
2021/10/13 05:14:31;;;;;;;15.27;10.05;;;7.20;99.90;;;;;;4976363;28;20283;-83
2021/10/13 05:17:14;;;;;;;17.30;10.32;;;7.20;99.90;;;;;;4976172;28;20744;-84
2021/10/13 05:19:47;;;;;;;12.73;9.77;;;7.30;99.90;;;;;;4976107;28;20267;-84
2021/10/13 05:22:27;;;;;;;17.67;11.15;;;7.30;99.90;;;;;;4976367;28;20228;-84
2021/10/13 05:24:56;;;;;;;15.80;11.57;;;7.30;99.90;;;;;;4976318;28;20204;-84
2021/10/13 05:27:23;;;;;;;15.23;11.95;;;7.20;99.90;;;;;;4976149;28;20247;-84
2021/10/13 05:29:53;;;;;;;16.15;10.82;;;7.20;99.90;;;;;;4976954;28;20235;-84
2021/10/13 05:32:20;;;;;;;22.25;12.02;;;7.20;99.90;;;;;;4976464;28;20244;-83
2021/10/13 05:34:47;;;;;;;15.40;11.23;;;7.20;99.90;;;;;;4958114;28;20209;-83
2021/10/13 05:37:13;;;;;;;14.65;10.80;;;7.10;99.90;;;;;;4957652;28;20209;-83
2021/10/13 05:39:40;;;;;;;18.27;12.00;;;7.10;99.90;;;;;;4975725;28;20204;-83
2021/10/13 05:42:08;;;;;;;15.02;10.93;;;7.10;99.90;;;;;;4976903;28;20617;-83
2021/10/13 05:44:35;;;;;;;15.80;10.80;;;7.00;99.90;;;;;;4976633;28;20569;-83
2021/10/13 05:47:02;;;;;;;16.77;13.13;;;7.00;99.90;;;;;;4977043;28;20208;-82
2021/10/13 05:49:29;;;;;;;21.48;13.77;;;6.90;99.90;;;;;;4977503;28;20224;-82
2021/10/13 05:51:56;;;;;;;16.77;11.82;;;6.80;99.90;;;;;;4964261;28;20252;-82
2021/10/13 05:54:22;;;;;;;15.18;11.48;;;6.80;99.90;;;;;;4964944;28;20211;-83
2021/10/13 05:56:51;;;;;;;20.38;12.27;;;6.90;99.90;;;;;;4965688;28;20209;-82
2021/10/13 05:59:19;;;;;;;16.38;14.13;;;6.80;99.90;;;;;;4966262;28;20207;-83
2021/10/13 06:01:46;;;;;;;21.55;12.75;;;6.80;99.90;;;;;;4966350;28;20267;-83
2021/10/13 06:04:13;;;;;;;18.38;12.95;;;6.80;99.90;;;;;;4966764;28;20575;-83
2021/10/13 06:06:39;;;;;;;19.23;14.95;;;6.90;99.90;;;;;;4965510;28;20215;-82
2021/10/13 06:09:06;;;;;;;15.10;11.75;;;6.90;99.90;;;;;;4979087;28;20221;-80
2021/10/13 06:11:33;;;;;;;18.08;13.80;;;6.90;99.90;;;;;;4984222;28;20563;-82
2021/10/13 06:13:59;;;;;;;18.92;11.85;;;6.90;99.90;;;;;;4976467;28;20200;-82
2021/10/13 06:16:28;;;;;;;16.90;13.00;;;7.00;99.90;;;;;;4970505;28;20208;-82
2021/10/13 06:18:55;;;;;;;21.35;12.93;;;7.10;99.90;;;;;;4987983;28;20213;-84
2021/10/13 06:21:22;;;;;;;20.52;12.80;;;7.20;99.90;;;;;;4975758;28;20437;-82
2021/10/13 06:23:49;;;;;;;18.23;11.68;;;7.20;99.90;;;;;;4975916;28;20681;-82
2021/10/13 06:26:22;;;;;;;18.40;11.70;;;7.30;99.90;;;;;;4976572;28;20200;-86
2021/10/13 06:28:49;;;;;;;16.27;11.00;;;7.40;99.90;;;;;;4978403;28;20228;-82
2021/10/13 06:31:16;;;;;;;17.33;13.85;;;7.50;99.90;;;;;;4976453;28;20212;-82
2021/10/13 06:33:52;;;;;;;19.42;12.57;;;7.50;99.90;;;;;;4976095;28;20261;-82
2021/10/13 06:36:19;;;;;;;17.60;11.77;;;7.50;99.90;;;;;;4975755;28;20595;-82
2021/10/13 06:38:46;;;;;;;15.48;12.50;;;7.40;99.90;;;;;;4975626;28;20271;-81
2021/10/13 06:41:13;;;;;;;18.15;11.23;;;7.40;99.90;;;;;;4975634;28;20220;-82
2021/10/13 06:43:40;;;;;;;18.50;11.55;;;7.50;99.90;;;;;;4975433;28;20713;-82
2021/10/13 06:46:07;;;;;;;12.25;9.90;;;7.40;99.90;;;;;;4975709;28;20212;-81
2021/10/13 06:48:34;;;;;;;16.25;11.30;;;7.40;99.90;;;;;;4975437;28;20588;-82
2021/10/13 06:51:02;;;;;;;13.07;9.52;;;7.40;99.90;;;;;;4975500;28;20219;-80
2021/10/13 06:53:30;;;;;;;14.02;10.38;;;7.40;99.90;;;;;;4975580;28;20228;-82
2021/10/13 06:55:57;;;;;;;13.73;10.15;;;7.30;99.90;;;;;;4975623;28;20723;-82
2021/10/13 06:58:24;;;;;;;15.40;11.48;;;7.30;99.90;;;;;;4975844;28;20584;-83
2021/10/13 07:00:51;;;;;;;14.65;9.88;;;7.30;99.90;;;;;;4975857;28;20856;-82
2021/10/13 07:03:17;;;;;;;13.35;10.75;;;7.30;99.90;;;;;;4975444;28;20232;-82
2021/10/13 07:05:45;;;;;;;14.48;9.95;;;7.30;99.90;;;;;;4975584;28;20220;-83
2021/10/13 07:08:13;;;;;;;13.90;9.55;;;7.50;99.90;;;;;;4974860;28;20215;-83
2021/10/13 07:10:40;;;;;;;12.30;9.30;;;7.50;99.90;;;;;;4974946;28;20212;-83
2021/10/13 07:13:07;;;;;;;14.43;8.93;;;7.50;99.90;;;;;;4974874;28;20236;-83
2021/10/13 07:15:33;;;;;;;15.25;9.90;;;7.50;99.90;;;;;;4974553;28;20208;-82
2021/10/13 07:18:00;;;;;;;12.38;9.10;;;7.50;99.90;;;;;;4974588;28;20212;-82
2021/10/13 07:20:27;;;;;;;15.77;10.52;;;7.50;99.90;;;;;;4974582;28;20219;-82
2021/10/13 07:22:54;;;;;;;18.08;10.55;;;7.40;99.90;;;;;;4974722;28;20239;-82
2021/10/13 07:25:24;;;;;;;17.42;10.25;;;7.30;99.90;;;;;;4974371;28;20212;-82
2021/10/13 07:27:51;;;;;;;14.13;10.32;;;7.30;99.90;;;;;;4974722;28;20212;-82
2021/10/13 07:30:22;;;;;;;11.98;9.10;;;7.30;99.90;;;;;;4974493;28;20231;-82
2021/10/13 07:32:49;;;;;;;14.50;9.20;;;7.30;99.90;;;;;;4974243;28;20702;-82
2021/10/13 07:35:16;;;;;;;15.80;9.18;;;7.20;99.90;;;;;;4974120;28;20209;-83
2021/10/13 07:37:42;;;;;;;10.02;8.48;;;7.20;99.90;;;;;;4974501;28;20215;-82
2021/10/13 07:40:10;;;;;;;11.10;8.70;;;7.20;99.90;;;;;;4974454;28;20204;-83
2021/10/13 07:42:38;;;;;;;13.60;10.63;;;7.20;99.90;;;;;;4974397;28;20232;-82
2021/10/13 07:45:07;;;;;;;13.95;9.45;;;7.20;99.90;;;;;;4974040;28;20564;-82
2021/10/13 07:47:33;;;;;;;12.68;8.32;;;7.10;99.90;;;;;;4974052;28;20212;-82
2021/10/13 07:50:00;;;;;;;15.27;10.60;;;7.20;99.90;;;;;;4974350;28;20228;-82
2021/10/13 07:52:27;;;;;;;15.52;9.93;;;7.20;99.90;;;;;;4974621;28;20236;-82
2021/10/13 07:54:54;;;;;;;12.15;9.60;;;7.30;99.90;;;;;;4974349;28;20209;-83
2021/10/13 07:57:20;;;;;;;16.52;11.95;;;7.40;99.90;;;;;;4973857;28;20211;-82
2021/10/13 07:59:50;;;;;;;13.85;9.38;;;7.40;99.90;;;;;;4973901;28;20204;-83
2021/10/13 08:02:16;;;;;;;17.10;10.70;;;7.40;99.90;;;;;;4973905;28;20240;-82
2021/10/13 08:04:43;;;;;;;13.13;8.77;;;7.30;99.90;;;;;;4974099;28;20211;-83
2021/10/13 08:07:10;;;;;;;12.45;8.60;;;7.40;99.90;;;;;;4974334;28;20219;-83
2021/10/13 08:09:37;;;;;;;12.85;9.85;;;7.40;99.90;;;;;;4973825;28;20331;-82
2021/10/13 08:12:04;;;;;;;10.50;8.55;;;7.50;99.90;;;;;;4974202;28;20236;-82
2021/10/13 08:14:31;;;;;;;14.27;10.77;;;7.50;99.90;;;;;;4973749;28;20219;-81
2021/10/13 08:16:59;;;;;;;15.93;11.00;;;7.70;99.90;;;;;;4973584;28;20224;-84
2021/10/13 08:19:26;;;;;;;13.00;8.50;;;7.90;99.90;;;;;;4973924;28;20219;-82
2021/10/13 08:21:52;;;;;;;9.60;8.35;;;8.10;99.90;;;;;;4973643;28;20232;-83
2021/10/13 08:24:19;;;;;;;10.02;7.80;;;8.10;99.90;;;;;;4973572;28;20215;-82
2021/10/13 08:26:47;;;;;;;11.45;7.95;;;8.20;99.90;;;;;;4973599;28;20227;-83
2021/10/13 08:29:14;;;;;;;9.38;6.90;;;8.20;99.90;;;;;;4973364;28;20236;-84
2021/10/13 08:31:41;;;;;;;9.45;8.45;;;8.30;99.90;;;;;;4973510;28;20208;-82
2021/10/13 08:34:09;;;;;;;8.98;7.32;;;8.50;99.90;;;;;;4973620;28;20208;-83
2021/10/13 08:36:36;;;;;;;9.30;7.43;;;8.60;99.90;;;;;;4973339;28;20594;-82
2021/10/13 08:39:03;;;;;;;6.60;5.90;;;8.50;99.90;;;;;;4973373;28;20689;-83
2021/10/13 08:41:30;;;;;;;9.23;6.07;;;8.60;99.90;;;;;;4973355;28;20208;-83
2021/10/13 08:43:57;;;;;;;8.48;6.50;;;8.70;99.90;;;;;;4972704;28;20238;-83
2021/10/13 08:46:24;;;;;;;7.20;6.50;;;8.90;99.90;;;;;;4973365;28;20215;-83
2021/10/13 08:48:51;;;;;;;5.60;5.07;;;9.00;99.90;;;;;;4973294;28;20412;-83
2021/10/13 08:51:19;;;;;;;7.40;4.47;;;9.20;99.90;;;;;;4973466;28;20205;-82
2021/10/13 08:53:46;;;;;;;7.85;4.47;;;9.60;99.90;;;;;;4973288;28;20710;-83
2021/10/13 08:56:13;;;;;;;4.87;3.30;;;9.90;99.90;;;;;;4972917;28;20209;-83
2021/10/13 08:58:41;;;;;;;4.57;3.08;;;10.20;99.90;;;;;;4973123;28;20461;-83
2021/10/13 09:01:12;;;;;;;3.23;2.93;;;10.40;99.90;;;;;;4973319;28;20206;-82
2021/10/13 09:03:40;;;;;;;4.93;4.53;;;10.70;99.90;;;;;;4973055;28;20497;-83
2021/10/13 09:06:15;;;;;;;4.90;4.17;;;10.70;99.90;;;;;;4972961;28;20461;-83
2021/10/13 09:08:55;;;;;;;6.10;5.50;;;10.70;99.90;;;;;;4973142;28;20809;-83
2021/10/13 09:11:31;;;;;;;7.10;5.77;;;10.60;99.90;;;;;;4973204;28;20454;-83
2021/10/13 09:14:05;;;;;;;9.10;8.30;;;10.40;99.90;;;;;;4973115;28;20454;-83
2021/10/13 09:16:44;;;;;;;9.03;8.13;;;10.20;99.90;;;;;;4972854;28;20464;-82
2021/10/13 09:19:11;;;;;;;9.68;8.20;;;9.90;99.90;;;;;;4972940;28;20454;-83
2021/10/13 09:21:49;;;;;;;12.65;9.18;;;9.80;99.90;;;;;;4973022;28;20205;-83
2021/10/13 09:24:17;;;;;;;11.75;9.23;;;10.00;99.90;;;;;;4973160;28;20573;-83
2021/10/13 09:26:44;;;;;;;9.43;8.38;;;10.00;99.90;;;;;;4972656;28;20217;-83
2021/10/13 09:29:11;;;;;;;11.50;8.30;;;9.90;99.90;;;;;;4972698;28;20236;-83
2021/10/13 09:31:38;;;;;;;8.98;7.35;;;9.80;99.90;;;;;;4972739;28;20217;-83
2021/10/13 09:34:07;;;;;;;13.13;11.10;;;9.90;99.90;;;;;;4972856;28;20220;-83
2021/10/13 09:36:36;;;;;;;9.60;7.78;;;9.90;99.90;;;;;;4972909;28;20215;-83
2021/10/13 09:39:08;;;;;;;7.20;6.50;;;9.80;99.90;;;;;;4973094;28;20615;-82
2021/10/13 09:41:58;;;;;;;7.53;6.78;;;9.60;99.90;;;;;;4972809;28;20217;-81
2021/10/13 09:44:26;;;;;;;9.18;8.07;;;9.30;99.90;;;;;;4980239;28;20730;-82
2021/10/13 09:46:58;;;;;;;8.15;7.35;;;9.40;99.90;;;;;;4975471;28;20215;-83
2021/10/13 09:49:29;;;;;;;12.52;8.15;;;9.50;99.90;;;;;;4972919;28;20257;-84
2021/10/13 09:52:05;;;;;;;14.77;7.80;;;9.60;99.90;;;;;;4972873;28;20316;-83
2021/10/13 09:54:32;;;;;;;8.38;7.10;;;9.60;99.90;;;;;;4972798;28;20248;-83
2021/10/13 09:57:00;;;;;;;13.50;9.13;;;9.80;99.90;;;;;;4974483;28;20211;-83
2021/10/13 09:59:27;;;;;;;9.67;7.07;;;9.90;99.90;;;;;;4976088;28;20206;-83
2021/10/13 10:01:58;;;;;;;9.75;8.85;;;10.00;99.90;;;;;;4975995;28;20488;-82
2021/10/13 10:04:27;;;;;;;9.57;8.63;;;10.20;99.90;;;;;;4975924;28;20212;-83
2021/10/13 10:06:55;;;;;;;10.83;9.57;;;10.20;99.90;;;;;;4975691;28;20453;-82
2021/10/13 10:09:23;;;;;;;6.40;5.80;;;10.20;99.90;;;;;;4980350;28;20874;-83
2021/10/13 10:12:03;;;;;;;7.83;6.40;;;10.40;99.90;;;;;;4992787;28;20489;-82
2021/10/13 10:14:43;;;;;;;4.53;4.13;;;10.50;99.90;;;;;;4984611;28;20464;-82
2021/10/13 10:17:10;;;;;;;6.60;5.47;;;10.80;99.90;;;;;;4976521;28;20457;-83
2021/10/13 10:19:42;;;;;;;6.63;6.00;;;11.10;99.90;;;;;;4976391;28;20469;-83
2021/10/13 10:22:12;;;;;;;9.13;6.07;;;11.50;99.90;;;;;;4976172;28;20483;-82
2021/10/13 10:24:41;;;;;;;4.63;4.17;;;12.00;99.90;;;;;;4975909;28;20497;-83
2021/10/13 10:27:29;;;;;;;4.20;3.77;;;12.20;99.90;;;;;;4975660;28;20463;-83
2021/10/13 10:30:18;;;;;;;4.43;4.13;;;12.30;99.90;;;;;;4975587;28;20494;-83
2021/10/13 10:32:47;;;;;;;3.13;2.63;;;12.30;99.90;;;;;;4976315;28;20475;-83
2021/10/13 10:35:16;;;;;;;3.07;2.67;;;12.20;99.90;;;;;;4977946;28;20458;-83
2021/10/13 10:37:44;;;;;;;4.80;3.73;;;12.10;99.90;;;;;;4977958;28;20444;-83
2021/10/13 10:40:20;;;;;;;3.30;3.00;;;12.20;99.90;;;;;;4975567;28;20450;-82
2021/10/13 10:42:51;;;;;;;3.23;2.60;;;12.30;99.90;;;;;;4975297;28;20498;-83
2021/10/13 10:45:19;;;;;;;3.70;3.47;;;12.70;99.70;;;;;;4975431;28;20452;-83
2021/10/13 10:47:52;;;;;;;2.70;2.47;;;13.20;99.00;;;;;;4975647;28;20498;-82
2021/10/13 10:50:33;;;;;;;4.60;3.10;;;13.30;98.20;;;;;;4975005;28;21007;-82
2021/10/13 10:53:30;;;;;;;3.30;3.00;;;13.10;97.10;;;;;;4975093;28;20479;-82
2021/10/13 10:56:16;;;;;;;4.07;3.67;;;12.80;98.30;;;;;;4974900;28;20466;-82
2021/10/13 10:59:21;;;;;;;5.07;4.57;;;12.10;99.80;;;;;;4977424;28;20995;-81
2021/10/13 11:04:17;;;;;;;6.10;3.10;;;11.00;99.90;;;;;;5021906;28;20477;-78
2021/10/13 11:06:44;;;;;;;4.90;3.60;;;10.90;99.90;;;;;;5021074;28;20441;-78
2021/10/13 11:09:12;;;;;;;6.47;4.57;;;10.80;99.90;;;;;;5015927;28;20478;-79
2021/10/13 11:11:41;;;;;;;4.77;3.93;;;10.80;99.90;;;;;;5015463;28;20458;-78
2021/10/13 11:14:12;;;;;;;4.13;3.73;;;10.70;99.90;;;;;;5002617;28;20496;-80
2021/10/13 11:16:46;;;;;;;4.57;4.18;;;10.50;99.90;;;;;;5002063;28;20473;-78
2021/10/13 11:19:21;;;;;;;9.35;4.88;;;10.40;99.90;;;;;;5002919;28;20209;-78
2021/10/13 11:22:00;;;;;;;5.00;4.30;;;10.40;99.90;;;;;;5002328;28;20224;-78
2021/10/13 11:24:27;;;;;;;8.40;5.90;;;10.30;99.90;;;;;;5001633;28;20456;-78
2021/10/13 11:26:54;;;;;;;8.95;6.60;;;10.20;99.90;;;;;;5002000;28;20452;-77
2021/10/13 11:29:23;;;;;;;10.90;8.10;;;10.20;99.90;;;;;;5001739;28;20218;-78
2021/10/13 11:31:50;;;;;;;6.70;6.10;;;10.40;99.90;;;;;;5002787;28;20457;-78
2021/10/13 11:34:20;;;;;;;8.48;6.57;;;10.80;99.90;;;;;;5001680;28;20452;-78
2021/10/13 11:36:54;;;;;;;8.73;6.50;;;11.40;99.90;;;;;;5001729;28;20214;-78
2021/10/13 11:39:23;;;;;;;6.27;3.90;;;12.50;99.90;;;;;;5004011;28;20442;-79
2021/10/13 11:41:51;;;;;;;4.40;4.00;;;13.80;99.90;;;;;;5000039;28;20435;-79
2021/10/13 11:44:20;;;;;;;3.97;3.17;;;14.90;99.90;;;;;;5003062;28;20478;-78
2021/10/13 11:46:56;;;;;;;4.00;3.70;;;15.00;97.70;;;;;;5002773;28;20460;-78
2021/10/13 11:49:23;;;;;;;5.20;3.80;;;15.30;97.70;;;;;;5000674;28;20445;-79
2021/10/13 11:54:43;;;;;;;4.37;3.97;;;15.70;97.00;;;;;;5099399;28;20559;-79
2021/10/13 11:57:10;;;;;;;4.60;4.30;;;14.50;96.60;;;;;;5099635;28;20448;-79
2021/10/13 11:59:38;;;;;;;5.43;4.43;;;13.50;98.80;;;;;;5101578;28;20454;-79
2021/10/13 12:02:19;;;;;;;4.43;3.47;;;12.50;99.90;;;;;;5103081;28;20454;-79
2021/10/13 12:04:54;;;;;;;5.03;2.80;;;11.90;99.90;;;;;;5103791;28;20457;-79
2021/10/13 12:07:23;;;;;;;3.27;1.53;;;11.60;99.90;;;;;;5102866;28;20452;-79
2021/10/13 12:10:02;;;;;;;1.67;1.57;;;10.90;99.90;;;;;;5102569;28;20440;-79
2021/10/13 12:12:30;;;;;;;2.05;1.85;;;10.30;99.90;;;;;;5104442;28;20486;-78
2021/10/13 12:14:58;;;;;;;3.47;1.60;;;10.00;99.90;;;;;;5103615;28;20207;-78
2021/10/13 12:17:28;;;;;;;1.37;1.27;;;10.00;99.90;;;;;;5101808;28;20202;-79
2021/10/13 12:19:55;;;;;;;1.10;1.10;;;10.10;99.90;;;;;;5103295;28;20973;-78
2021/10/13 12:22:22;;;;;;;1.55;0.90;;;10.40;99.90;;;;;;5104931;28;20257;-78
2021/10/13 12:24:49;;;;;;;1.60;1.07;;;10.60;99.90;;;;;;5103459;28;20230;-78
2021/10/13 12:27:29;;;;;;;0.80;0.80;;;10.60;99.90;;;;;;5102741;28;20453;-78
2021/10/13 12:29:56;;;;;;;3.23;1.00;;;10.80;99.90;;;;;;5101424;28;20971;-78
2021/10/13 12:32:24;;;;;;;2.07;0.80;;;10.70;99.90;;;;;;5101654;28;20473;-80
2021/10/13 12:34:52;;;;;;;1.07;1.00;;;10.60;99.90;;;;;;5097479;28;20522;-78
2021/10/13 12:37:23;;;;;;;2.20;1.77;;;10.50;99.90;;;;;;5099819;28;20804;-78
2021/10/13 12:39:49;;;;;;;1.35;1.25;;;10.60;99.90;;;;;;5101055;28;20445;-79
2021/10/13 12:42:17;;;;;;;2.70;1.50;;;11.00;99.90;;;;;;5098387;28;20233;-78
2021/10/13 12:44:45;;;;;;;2.50;1.30;;;11.20;99.90;;;;;;5099480;28;20498;-78
2021/10/13 12:47:15;;;;;;;1.47;1.13;;;12.00;99.90;;;;;;5098996;28;20453;-78
2021/10/13 12:49:44;;;;;;;1.27;1.17;;;12.80;99.90;;;;;;5096400;28;20449;-79
2021/10/13 12:52:13;;;;;;;1.37;1.27;;;13.60;98.60;;;;;;5096646;28;20472;-78
2021/10/13 12:54:42;;;;;;;0.77;0.77;;;14.40;97.50;;;;;;5096152;28;20482;-78
2021/10/13 12:57:10;;;;;;;1.03;0.97;;;15.00;96.20;;;;;;5096469;28;20454;-77
2021/10/13 12:59:41;;;;;;;2.33;1.00;;;14.80;94.80;;;;;;5096486;28;20452;-78
2021/10/13 13:02:09;;;;;;;1.00;1.00;;;14.40;94.30;;;;;;5096008;28;20497;-81
2021/10/13 13:04:37;;;;;;;3.90;1.43;;;13.90;95.40;;;;;;5091317;28;20534;-79
2021/10/13 13:07:06;;;;;;;1.40;1.23;;;13.80;94.10;;;;;;5084008;28;20458;-78